Time;durP1;ratioP1;P1;durP2;ratioP2;P2;SDS_P1;SDS_P2;PMS_P1;PMS_P2;Temp;Humidity;BMP_temperature;BMP_pressure;BME280_temperature;BME280_humidity;BME280_pressure;Samples;Min_cycle;Max_cycle;Signal;HPM_P1;HPM_P2
2022/12/24 10:06:50;;;;;;;12.20;3.47;;;;;;;11.55;100.00;98772.50;5172424;27;20562;-86
2022/12/24 10:09:30;;;;;;;12.97;3.13;;;;;;;12.06;98.21;98772.56;5136824;27;40220;-86
2022/12/24 10:12:06;;;;;;;12.20;4.00;;;;;;;12.61;94.42;98766.00;5136777;27;40729;-86
2022/12/24 10:14:46;;;;;;;11.93;3.13;;;;;;;12.96;91.53;98769.59;5153208;27;41803;-87
2022/12/24 10:17:31;;;;;;;11.63;3.60;;;;;;;13.13;87.99;98792.25;5137073;27;42332;-88
2022/12/24 10:20:11;;;;;;;8.43;2.83;;;;;;;13.09;87.67;98775.72;5137620;27;38964;-87
2022/12/24 10:22:48;;;;;;;10.03;3.00;;;;;;;13.23;86.83;98791.50;5154662;27;40505;-86
2022/12/24 10:25:21;;;;;;;9.90;3.27;;;;;;;13.29;85.57;98779.56;5153434;27;42954;-88
2022/12/24 10:27:50;;;;;;;9.20;2.80;;;;;;;13.56;84.27;98801.44;5136433;27;41031;-86
2022/12/24 10:30:21;;;;;;;10.63;3.23;;;;;;;13.51;83.96;98776.13;5136097;27;41516;-87
2022/12/24 10:32:51;;;;;;;12.17;3.60;;;;;;;13.56;83.88;98789.94;5136384;27;41632;-87
2022/12/24 10:35:24;;;;;;;15.17;3.50;;;;;;;13.77;82.27;98804.28;5153785;27;41482;-86
2022/12/24 10:37:56;;;;;;;12.20;4.20;;;;;;;14.49;79.47;98796.88;5153589;27;41246;-88
2022/12/24 10:40:31;;;;;;;13.33;3.80;;;;;;;14.63;76.72;98791.31;5154245;27;38972;-87
2022/12/24 10:42:58;;;;;;;12.13;3.43;;;;;;;14.47;78.37;98787.31;5136457;27;40732;-87
2022/12/24 10:45:37;;;;;;;10.93;3.23;;;;;;;14.56;79.07;98811.44;5153161;27;42096;-87
2022/12/24 10:48:10;;;;;;;10.87;3.10;;;;;;;14.37;78.05;98797.81;5153465;27;41519;-86
2022/12/24 10:50:43;;;;;;;11.07;3.10;;;;;;;14.34;76.89;98832.72;5154025;27;39199;-87
2022/12/24 10:53:20;;;;;;;9.50;3.07;;;;;;;14.14;77.60;98810.28;5152807;27;40701;-88
2022/12/24 10:55:48;;;;;;;11.27;2.83;;;;;;;13.77;78.43;98751.03;5153843;27;41733;-87
2022/12/24 10:58:18;;;;;;;13.23;4.20;;;;;;;14.21;78.83;98808.84;5135708;27;41258;-88
2022/12/24 11:00:51;;;;;;;10.23;2.90;;;;;;;14.21;79.05;98794.69;5153196;27;38864;-88
2022/12/24 11:03:28;;;;;;;9.93;3.43;;;;;;;14.30;78.18;98820.59;5135451;27;42395;-87
2022/12/24 11:06:06;;;;;;;12.37;3.03;;;;;;;14.22;77.19;98799.88;5152595;27;41805;-87
2022/12/24 11:08:36;;;;;;;9.33;2.90;;;;;;;14.20;76.87;98785.00;5152839;27;41271;-86
2022/12/24 11:11:07;;;;;;;11.63;3.47;;;;;;;14.29;77.79;98785.13;5136217;27;38982;-87
2022/12/24 11:13:38;;;;;;;10.23;2.60;;;;;;;14.38;78.24;98795.03;5135457;27;41101;-88
2022/12/24 11:16:10;;;;;;;11.13;2.80;;;;;;;14.34;77.68;98784.75;5133175;27;41804;-88
2022/12/24 11:18:44;;;;;;;9.93;2.77;;;;;;;14.24;77.38;98797.09;5138883;27;41052;-89
2022/12/24 11:21:18;;;;;;;9.07;3.30;;;;;;;14.07;78.26;98797.56;5123888;27;39349;-86
2022/12/24 11:23:53;;;;;;;13.67;3.73;;;;;;;13.84;79.51;98797.53;5122513;27;41544;-89
2022/12/24 11:26:26;;;;;;;7.63;3.00;;;;;;;13.70;80.63;98803.06;5153315;27;42814;-90
2022/12/24 11:29:15;;;;;;;14.10;3.00;;;;;;;13.24;81.71;98769.25;5122297;27;42535;-89
2022/12/24 11:31:44;;;;;;;10.70;3.00;;;;;;;13.32;82.89;98802.44;5122728;27;39097;-90
2022/12/24 11:34:26;;;;;;;11.77;3.60;;;;;;;13.12;83.81;98791.41;5121544;27;40998;-88
2022/12/24 11:36:57;;;;;;;8.23;2.90;;;;;;;13.02;84.79;98779.75;5122583;27;42429;-90
2022/12/24 11:39:26;;;;;;;13.10;3.00;;;;;;;12.96;85.03;98769.59;5121919;27;42067;-88
2022/12/24 11:41:55;;;;;;;12.50;3.57;;;;;;;13.05;85.95;98782.22;5123246;27;40613;-90
2022/12/24 11:44:26;;;;;;;9.23;2.80;;;;;;;13.09;86.22;98758.91;5105980;27;41770;-90
2022/12/24 11:46:56;;;;;;;11.80;3.37;;;;;;;13.20;86.25;98745.69;5153702;27;42450;-86
2022/12/24 11:49:27;;;;;;;10.07;3.10;;;;;;;13.60;85.35;98776.28;5138769;27;42242;-89
2022/12/24 11:52:18;;;;;;;11.80;3.20;;;;;;;13.95;83.36;98765.59;5139219;27;39672;-87
2022/12/24 11:55:07;;;;;;;11.63;3.40;;;;;;;14.67;83.03;98805.25;5129127;27;40844;-88
2022/12/24 11:57:45;;;;;;;13.60;3.17;;;;;;;14.81;81.60;98806.81;5135080;27;41720;-90
2022/12/24 12:00:13;;;;;;;8.70;3.07;;;;;;;14.61;80.54;98785.25;5142504;27;41305;-88
2022/12/24 12:02:46;;;;;;;18.07;3.60;;;;;;;14.86;80.06;98815.25;5143037;27;38961;-89
2022/12/24 12:05:22;;;;;;;11.13;3.00;;;;;;;15.41;79.77;98814.28;5141604;27;40775;-89
2022/12/24 12:07:53;;;;;;;11.00;3.10;;;;;;;15.97;78.15;98820.22;5140769;27;42994;-88
2022/12/24 12:10:25;;;;;;;12.67;3.50;;;;;;;16.40;75.67;98805.84;5138734;27;40753;-88
2022/12/24 12:12:59;;;;;;;14.07;3.73;;;;;;;17.29;72.89;98825.56;5138218;27;39041;-88
2022/12/24 12:15:33;;;;;;;8.80;2.83;;;;;;;18.34;69.29;98837.22;5121262;27;41890;-88
2022/12/24 12:18:07;;;;;;;12.33;3.17;;;;;;;19.47;64.66;98843.19;5138033;27;41781;-87
2022/12/24 12:20:39;;;;;;;8.90;3.17;;;;;;;21.17;55.98;98876.75;5120609;27;41167;-85
2022/12/24 12:23:14;;;;;;;9.30;3.30;;;;;;;23.05;50.99;98895.59;5121219;27;38576;-87
2022/12/24 12:25:50;;;;;;;8.73;2.93;;;;;;;24.17;48.34;98902.44;5138075;27;41602;-88
2022/12/24 12:28:22;;;;;;;8.23;3.20;;;;;;;24.84;45.83;98905.25;5136934;27;41732;-87
2022/12/24 12:30:59;;;;;;;12.43;3.13;;;;;;;25.19;43.46;98920.81;5121131;27;42101;-88
2022/12/24 12:33:34;;;;;;;8.90;2.97;;;;;;;25.54;42.11;98912.91;5137647;27;40064;-89
2022/12/24 12:36:03;;;;;;;6.10;2.60;;;;;;;26.11;41.51;98916.50;5138014;27;41127;-88
2022/12/24 12:38:31;;;;;;;8.33;3.00;;;;;;;26.43;39.99;98912.47;5137620;27;41738;-88
2022/12/24 12:41:18;;;;;;;7.53;2.83;;;;;;;25.75;39.21;98912.97;5120215;27;41453;-86
2022/12/24 12:44:11;;;;;;;9.77;2.73;;;;;;;24.35;41.32;98919.25;5120292;27;38937;-87
2022/12/24 12:46:53;;;;;;;8.40;2.57;;;;;;;23.62;42.70;98895.38;5116880;27;40969;-84
2022/12/24 12:49:33;;;;;;;5.57;2.30;;;;;;;22.57;43.91;98867.69;5137470;27;41695;-84
2022/12/24 12:52:10;;;;;;;7.20;2.87;;;;;;;21.94;45.62;98872.06;5138130;27;41246;-86
2022/12/24 12:54:52;;;;;;;7.57;2.77;;;;;;;21.31;47.63;98861.84;5120663;27;39095;-87
2022/12/24 12:57:27;;;;;;;7.80;2.53;;;;;;;20.68;48.72;98844.22;5119878;27;41803;-87
2022/12/24 12:59:59;;;;;;;8.60;2.80;;;;;;;20.29;48.63;98876.03;5120460;27;43029;-87
2022/12/24 13:02:45;;;;;;;8.00;2.70;;;;;;;19.82;50.16;98871.94;5137506;27;41017;-89
2022/12/24 13:05:49;;;;;;;11.73;3.20;;;;;;;19.31;51.92;98854.59;5119658;27;40088;-86
2022/12/24 13:08:41;;;;;;;9.80;3.43;;;;;;;18.87;52.84;98854.44;5095225;27;40595;-88
2022/12/24 13:11:30;;;;;;;11.87;3.33;;;;;;;18.06;53.46;98798.75;5119939;27;43133;-85
2022/12/24 13:14:33;;;;;;;7.87;2.57;;;;;;;17.92;54.29;98856.34;5119492;27;41391;-86
2022/12/24 13:17:33;;;;;;;8.63;3.13;;;;;;;17.27;55.83;98833.72;5134405;27;40729;-86
2022/12/24 13:20:19;;;;;;;8.07;2.70;;;;;;;16.82;57.64;98838.66;5119835;27;43496;-86
2022/12/24 13:22:56;;;;;;;9.87;2.57;;;;;;;16.48;59.19;98844.28;5119876;27;43147;-87
2022/12/24 13:25:30;;;;;;;11.70;4.17;;;;;;;16.08;60.86;98825.47;5136926;27;41468;-88
2022/12/24 13:28:15;;;;;;;10.47;3.17;;;;;;;15.52;62.88;98784.88;5119622;27;40527;-89
2022/12/24 13:30:44;;;;;;;9.63;2.83;;;;;;;15.39;64.63;98814.41;5120489;27;43115;-87
2022/12/24 13:33:34;;;;;;;11.93;3.77;;;;;;;14.78;65.76;98781.22;5121390;27;41774;-87
2022/12/24 13:36:03;;;;;;;8.60;3.07;;;;;;;14.66;68.06;98809.72;5123029;27;41526;-90
2022/12/24 13:38:41;;;;;;;12.23;3.93;;;;;;;14.57;69.80;98837.13;5119527;27;39000;-88
2022/12/24 13:41:57;;;;;;;9.87;3.10;;;;;;;14.38;70.86;98847.47;5120041;27;40741;-90
2022/12/24 13:44:31;;;;;;;12.63;2.90;;;;;;;14.00;72.12;98842.44;5119318;27;43099;-89
2022/12/24 13:47:17;;;;;;;9.40;2.77;;;;;;;13.92;73.40;98856.34;5119759;27;40885;-89
2022/12/24 13:49:49;;;;;;;11.67;3.03;;;;;;;13.71;73.99;98835.84;5119359;27;41346;-89
2022/12/24 13:52:22;;;;;;;11.90;3.90;;;;;;;13.49;75.05;98825.94;5119782;27;40426;-90
2022/12/24 13:55:17;;;;;;;9.33;3.03;;;;;;;13.53;75.29;98854.88;5136771;27;42079;-91
2022/12/24 13:57:53;;;;;;;10.80;2.93;;;;;;;13.42;75.81;98851.31;5136768;27;42439;-91
2022/12/24 14:00:32;;;;;;;10.63;3.83;;;;;;;13.38;76.69;98866.66;5119885;27;39400;-88
2022/12/24 14:03:03;;;;;;;11.30;2.43;;;;;;;13.35;76.83;98855.41;5119425;27;40616;-90
2022/12/24 14:05:37;;;;;;;10.40;2.80;;;;;;;12.85;76.75;98772.19;5153474;27;42459;-92
2022/12/24 14:08:10;;;;;;;8.83;3.00;;;;;;;13.35;77.03;98858.06;5136502;27;41175;-90
2022/12/24 14:10:42;;;;;;;9.63;2.67;;;;;;;13.01;77.08;98809.97;5136619;27;38894;-90
2022/12/24 14:13:43;;;;;;;9.73;3.53;;;;;;;13.21;77.59;98859.94;5119805;27;41178;-89
2022/12/24 14:16:15;;;;;;;8.10;2.33;;;;;;;13.01;77.53;98841.88;5119282;27;42948;-87
2022/12/24 14:18:46;;;;;;;8.20;3.17;;;;;;;13.04;78.14;98857.59;5118851;27;42006;-90
2022/12/24 14:21:22;;;;;;;10.13;2.60;;;;;;;13.08;77.80;98864.41;5118714;27;39056;-87
2022/12/24 14:23:54;;;;;;;8.33;2.93;;;;;;;12.99;77.74;98859.72;5135748;27;40443;-90
2022/12/24 14:26:28;;;;;;;10.53;2.73;;;;;;;12.90;77.94;98844.47;5119310;27;41679;-88
2022/12/24 14:28:58;;;;;;;8.57;3.07;;;;;;;12.79;77.82;98841.72;5136109;27;41017;-90
2022/12/24 14:31:26;;;;;;;7.40;2.80;;;;;;;12.76;77.85;98864.06;5136085;27;40143;-91
2022/12/24 14:34:06;;;;;;;8.53;3.23;;;;;;;12.40;78.55;98827.66;5119221;27;41723;-88
2022/12/24 14:36:36;;;;;;;7.90;2.57;;;;;;;12.10;78.60;98800.59;5119553;27;41756;-90
2022/12/24 14:39:06;;;;;;;7.30;2.77;;;;;;;12.39;78.90;98881.72;5119291;27;42427;-88
2022/12/24 14:41:45;;;;;;;7.97;2.80;;;;;;;12.12;79.33;98846.47;5136490;27;39955;-89
2022/12/24 14:44:29;;;;;;;12.13;3.33;;;;;;;12.07;79.86;98869.84;5119203;27;40690;-89
2022/12/24 14:47:05;;;;;;;7.53;3.23;;;;;;;12.02;80.20;98882.56;5118953;27;43519;-88
2022/12/24 14:49:48;;;;;;;12.03;5.30;;;;;;;11.82;80.36;98865.34;5136027;27;43704;-90
2022/12/24 14:52:28;;;;;;;14.90;5.67;;;;;;;11.69;80.76;98853.81;5120947;27;39318;-90
2022/12/24 14:54:55;;;;;;;14.07;5.63;;;;;;;11.66;81.10;98865.47;5122055;27;41456;-92
2022/12/24 14:57:25;;;;;;;14.63;5.43;;;;;;;11.77;81.98;98883.34;5122490;27;44036;-89
2022/12/24 14:59:54;;;;;;;10.73;3.87;;;;;;;11.44;82.35;98833.38;5121840;27;41444;-89
2022/12/24 15:02:26;;;;;;;12.20;4.10;;;;;;;11.69;83.49;98883.00;5122660;27;39091;-88
2022/12/24 15:05:09;;;;;;;8.87;3.50;;;;;;;11.63;84.29;98876.28;5138433;27;40816;-89
2022/12/24 15:07:42;;;;;;;9.77;3.40;;;;;;;11.34;83.98;98827.84;5122072;27;42799;-90
2022/12/24 15:10:25;;;;;;;9.03;3.37;;;;;;;11.50;84.02;98867.44;5121718;27;42337;-88
2022/12/24 15:12:56;;;;;;;8.10;2.90;;;;;;;11.56;83.92;98880.31;5122223;27;38764;-89
2022/12/24 15:15:24;;;;;;;9.20;2.90;;;;;;;11.55;84.14;98889.22;5121957;27;41812;-88
2022/12/24 15:17:53;;;;;;;9.37;3.03;;;;;;;11.35;83.96;98856.06;5121936;27;42709;-88
2022/12/24 15:20:25;;;;;;;12.97;3.60;;;;;;;11.37;85.11;98866.56;5121057;27;40933;-87
2022/12/24 15:22:57;;;;;;;12.43;3.67;;;;;;;11.26;84.92;98861.94;5122154;27;39280;-88
2022/12/24 15:25:26;;;;;;;6.80;3.07;;;;;;;11.26;85.34;98879.66;5138363;27;41942;-88
2022/12/24 15:27:54;;;;;;;9.40;3.33;;;;;;;11.21;85.43;98895.88;5138814;27;41949;-88
2022/12/24 15:30:24;;;;;;;8.90;3.13;;;;;;;11.00;85.40;98886.66;5138735;27;41163;-89
2022/12/24 15:32:54;;;;;;;8.03;3.00;;;;;;;10.92;85.66;98889.75;5122344;27;38852;-89
2022/12/24 15:35:34;;;;;;;10.77;4.40;;;;;;;10.76;86.38;98884.56;5121443;27;41967;-90
2022/12/24 15:38:05;;;;;;;10.03;4.23;;;;;;;10.82;86.07;98915.16;5121394;27;44286;-89
2022/12/24 15:40:33;;;;;;;8.20;3.63;;;;;;;10.59;86.12;98886.59;5121191;27;41424;-89
2022/12/24 15:43:02;;;;;;;9.77;3.90;;;;;;;10.59;86.17;98907.78;5121948;27;38997;-91
2022/12/24 15:45:39;;;;;;;9.10;4.63;;;;;;;10.61;86.54;98913.84;5121106;27;42165;-91
2022/12/24 15:48:09;;;;;;;11.57;4.67;;;;;;;10.52;86.74;98912.59;5139570;27;43104;-88
2022/12/24 15:50:43;;;;;;;7.00;3.93;;;;;;;10.23;86.81;98869.38;5123406;27;41415;-89
2022/12/24 15:53:17;;;;;;;8.27;3.27;;;;;;;9.98;86.53;98848.81;5122415;27;40444;-89
2022/12/24 15:55:48;;;;;;;6.70;3.20;;;;;;;10.33;86.75;98926.09;5121556;27;40960;-89
2022/12/24 15:58:18;;;;;;;9.50;3.37;;;;;;;9.91;86.97;98867.75;5121606;27;41529;-90
2022/12/24 16:01:01;;;;;;;6.07;2.70;;;;;;;9.91;87.19;98881.84;5120642;27;40911;-89
2022/12/24 16:03:28;;;;;;;6.57;3.37;;;;;;;10.02;87.44;98916.44;5138278;27;39422;-90
2022/12/24 16:06:01;;;;;;;8.80;3.73;;;;;;;9.98;87.57;98920.25;5137643;27;41770;-89
2022/12/24 16:08:32;;;;;;;6.70;4.27;;;;;;;10.01;87.63;98943.03;5121082;27;42951;-87
2022/12/24 16:11:17;;;;;;;9.63;4.27;;;;;;;9.97;88.16;98930.91;5120906;27;42792;-88
2022/12/24 16:14:10;;;;;;;11.07;4.60;;;;;;;9.82;88.78;98919.44;5138723;27;39958;-89
2022/12/24 16:16:44;;;;;;;10.87;4.47;;;;;;;9.72;88.70;98910.34;5120927;27;40746;-88
2022/12/24 16:19:18;;;;;;;14.30;5.43;;;;;;;9.79;88.95;98926.69;5121162;27;42119;-89
2022/12/24 16:21:46;;;;;;;7.40;3.77;;;;;;;9.44;89.18;98878.47;5138567;27;42162;-88
2022/12/24 16:24:20;;;;;;;8.83;3.97;;;;;;;9.73;89.11;98943.78;5120746;27;38918;-89
2022/12/24 16:26:48;;;;;;;8.57;3.83;;;;;;;9.67;89.33;98939.69;5138329;27;40460;-89
2022/12/24 16:29:18;;;;;;;10.87;4.20;;;;;;;9.66;89.30;98943.25;5120519;27;41829;-89
